Time;durP1;ratioP1;P1;durP2;ratioP2;P2;SDS_P1;SDS_P2;PMS_P1;PMS_P2;Temp;Humidity;BMP_temperature;BMP_pressure;BME280_temperature;BME280_humidity;BME280_pressure;Samples;Min_cycle;Max_cycle;Signal;HPM_P1;HPM_P2
2022/07/12 00:02:34;;;;;;;0.30;0.30;;;;;;;;;;5064155;28;20229;-72
2022/07/12 00:05:21;;;;;;;0.57;0.57;;;;;;;;;;5064835;28;20290;-72
2022/07/12 00:08:08;;;;;;;0.60;0.60;;;;;;;;;;5061649;28;20542;-72
2022/07/12 00:10:56;;;;;;;1.63;0.60;;;;;;;;;;5056436;28;20250;-73
2022/07/12 00:13:44;;;;;;;0.40;0.40;;;;;;;;;;5059696;28;20652;-72
2022/07/12 00:16:31;;;;;;;0.40;0.40;;;;;;;;;;5060851;28;20212;-72
2022/07/12 00:19:18;;;;;;;0.50;0.50;;;;;;;;;;5061097;28;20210;-72
2022/07/12 00:22:05;;;;;;;0.50;0.50;;;;;;;;;;5062595;28;20400;-72
2022/07/12 00:24:52;;;;;;;0.60;0.60;;;;;;;;;;5058892;28;20660;-72
2022/07/12 00:27:40;;;;;;;1.50;0.67;;;;;;;;;;5067364;28;20212;-72
2022/07/12 00:30:27;;;;;;;0.60;0.60;;;;;;;;;;5063691;28;20279;-72
2022/07/12 00:33:14;;;;;;;0.60;0.60;;;;;;;;;;5064695;28;20267;-72
2022/07/12 00:36:01;;;;;;;0.53;0.53;;;;;;;;;;5057083;28;20200;-72
2022/07/12 00:38:48;;;;;;;0.40;0.40;;;;;;;;;;5054208;28;20208;-72
2022/07/12 00:41:35;;;;;;;0.70;0.70;;;;;;;;;;5061093;28;20692;-72
2022/07/12 00:44:26;;;;;;;0.50;0.50;;;;;;;;;;5060572;28;20601;-72
2022/07/12 00:47:23;;;;;;;2.60;0.60;;;;;;;;;;5065753;28;20573;-72
2022/07/12 00:50:12;;;;;;;1.57;0.70;;;;;;;;;;5060785;28;20217;-72
2022/07/12 00:52:59;;;;;;;0.50;0.50;;;;;;;;;;5054924;28;20205;-72
2022/07/12 00:55:46;;;;;;;0.80;0.60;;;;;;;;;;5061931;28;20295;-72
2022/07/12 00:58:33;;;;;;;0.57;0.57;;;;;;;;;;5055775;28;20241;-72
2022/07/12 01:01:22;;;;;;;0.50;0.50;;;;;;;;;;5059695;28;20207;-72
2022/07/12 01:04:10;;;;;;;0.50;0.50;;;;;;;;;;5057016;28;20229;-72
2022/07/12 01:06:57;;;;;;;0.57;0.57;;;;;;;;;;5057515;28;20265;-72
2022/07/12 01:09:44;;;;;;;0.77;0.77;;;;;;;;;;5055538;28;20305;-72
2022/07/12 01:12:32;;;;;;;0.50;0.50;;;;;;;;;;5056085;28;20238;-72
2022/07/12 01:15:22;;;;;;;0.60;0.60;;;;;;;;;;5062341;28;20213;-72
2022/07/12 01:18:11;;;;;;;0.50;0.50;;;;;;;;;;5058898;28;20199;-72
2022/07/12 01:20:58;;;;;;;0.47;0.47;;;;;;;;;;5058984;28;20217;-72
2022/07/12 01:23:47;;;;;;;0.60;0.57;;;;;;;;;;5060180;28;20268;-72
2022/07/12 01:26:34;;;;;;;0.60;0.60;;;;;;;;;;5058225;28;20212;-72
2022/07/12 01:29:22;;;;;;;0.63;0.63;;;;;;;;;;5058063;28;20564;-72
2022/07/12 01:32:25;;;;;;;0.67;0.67;;;;;;;;;;5058390;28;20216;-72
2022/07/12 01:35:13;;;;;;;0.53;0.53;;;;;;;;;;5059696;28;20337;-72
2022/07/12 01:38:00;;;;;;;0.60;0.60;;;;;;;;;;5059339;28;20217;-72
2022/07/12 01:40:48;;;;;;;0.70;0.70;;;;;;;;;;5057379;28;20281;-72
2022/07/12 01:43:36;;;;;;;0.77;0.67;;;;;;;;;;5059627;28;20604;-72
2022/07/12 01:46:23;;;;;;;1.57;0.97;;;;;;;;;;5061449;28;20261;-72
2022/07/12 01:49:10;;;;;;;0.53;0.53;;;;;;;;;;5060043;28;20207;-72
2022/07/12 01:51:57;;;;;;;0.90;0.70;;;;;;;;;;5059517;28;20207;-72
2022/07/12 01:54:44;;;;;;;0.60;0.60;;;;;;;;;;5059656;28;20211;-72
2022/07/12 01:57:32;;;;;;;0.53;0.53;;;;;;;;;;5060604;28;20234;-72
2022/07/12 02:00:20;;;;;;;0.60;0.60;;;;;;;;;;5055698;28;20211;-72
2022/07/12 02:03:07;;;;;;;0.67;0.60;;;;;;;;;;5058230;28;20600;-72
2022/07/12 02:05:54;;;;;;;0.70;0.60;;;;;;;;;;5057367;28;20213;-72
2022/07/12 02:08:42;;;;;;;0.70;0.70;;;;;;;;;;5055025;28;20305;-73
2022/07/12 02:11:29;;;;;;;0.63;0.63;;;;;;;;;;5056035;28;20234;-72
2022/07/12 02:14:18;;;;;;;0.60;0.60;;;;;;;;;;5055496;28;20202;-72
2022/07/12 02:17:05;;;;;;;0.80;0.80;;;;;;;;;;5056856;28;20216;-72
2022/07/12 02:19:52;;;;;;;0.80;0.80;;;;;;;;;;5055791;28;20207;-72
2022/07/12 02:22:39;;;;;;;0.60;0.60;;;;;;;;;;5057582;28;20660;-72
2022/07/12 02:25:26;;;;;;;0.57;0.57;;;;;;;;;;5050013;28;20207;-72
2022/07/12 02:28:13;;;;;;;0.60;0.60;;;;;;;;;;5063151;28;20694;-72
2022/07/12 02:31:02;;;;;;;0.60;0.60;;;;;;;;;;5056656;28;20206;-72
2022/07/12 02:33:49;;;;;;;0.73;0.50;;;;;;;;;;5059772;28;20226;-72
2022/07/12 02:36:37;;;;;;;0.50;0.50;;;;;;;;;;5064595;28;20200;-72
2022/07/12 02:39:24;;;;;;;0.70;0.70;;;;;;;;;;5037647;28;20294;-72
2022/07/12 02:42:10;;;;;;;0.67;0.57;;;;;;;;;;5032244;28;20212;-72
2022/07/12 02:44:58;;;;;;;0.63;0.63;;;;;;;;;;5059550;28;20235;-72
2022/07/12 02:47:46;;;;;;;0.60;0.60;;;;;;;;;;5054677;28;20208;-72
2022/07/12 02:50:33;;;;;;;0.63;0.63;;;;;;;;;;5058316;28;20204;-72
2022/07/12 02:53:20;;;;;;;1.47;0.50;;;;;;;;;;5062672;28;20207;-72
2022/07/12 02:56:08;;;;;;;0.60;0.60;;;;;;;;;;5061626;28;20211;-72
2022/07/12 02:58:55;;;;;;;1.73;0.60;;;;;;;;;;5060426;28;20195;-72
2022/07/12 03:01:42;;;;;;;0.87;0.70;;;;;;;;;;5062234;28;20315;-72
2022/07/12 03:04:31;;;;;;;0.93;0.70;;;;;;;;;;5060169;28;20285;-71
2022/07/12 03:07:18;;;;;;;0.97;0.80;;;;;;;;;;5061283;28;20663;-70
2022/07/12 03:10:05;;;;;;;1.13;0.80;;;;;;;;;;5060608;28;20206;-70
2022/07/12 03:12:52;;;;;;;1.17;0.80;;;;;;;;;;5059108;28;20215;-70
2022/07/12 03:15:39;;;;;;;0.40;0.40;;;;;;;;;;5053599;28;20516;-69
2022/07/12 03:18:26;;;;;;;0.80;0.80;;;;;;;;;;5059998;28;20207;-70
2022/07/12 03:21:15;;;;;;;0.70;0.70;;;;;;;;;;5062350;28;20274;-70
2022/07/12 03:24:02;;;;;;;0.50;0.50;;;;;;;;;;5061162;28;20227;-69
2022/07/12 03:26:50;;;;;;;1.20;0.50;;;;;;;;;;5066778;28;20212;-70
2022/07/12 03:29:39;;;;;;;0.60;0.60;;;;;;;;;;5066545;28;20214;-69
2022/07/12 03:32:27;;;;;;;0.67;0.50;;;;;;;;;;5058993;28;20236;-70
2022/07/12 03:35:14;;;;;;;0.60;0.60;;;;;;;;;;5064474;28;20207;-70
2022/07/12 03:38:03;;;;;;;0.43;0.43;;;;;;;;;;5060733;28;20343;-69
2022/07/12 03:40:50;;;;;;;0.40;0.40;;;;;;;;;;5061802;28;20203;-70
2022/07/12 03:43:37;;;;;;;0.50;0.50;;;;;;;;;;5058679;28;20698;-70
2022/07/12 03:46:24;;;;;;;0.80;0.80;;;;;;;;;;5061919;28;20217;-70
2022/07/12 03:49:11;;;;;;;0.83;0.60;;;;;;;;;;5061958;28;20218;-70
2022/07/12 03:51:59;;;;;;;0.47;0.47;;;;;;;;;;5058643;28;20291;-70
2022/07/12 03:54:48;;;;;;;0.50;0.50;;;;;;;;;;5063231;28;20208;-69
2022/07/12 03:57:35;;;;;;;0.70;0.70;;;;;;;;;;5060045;28;20246;-69
2022/07/12 04:00:22;;;;;;;0.70;0.70;;;;;;;;;;5064113;28;20825;-70
2022/07/12 04:03:10;;;;;;;1.60;0.43;;;;;;;;;;5059401;28;20293;-70
2022/07/12 04:05:57;;;;;;;0.83;0.70;;;;;;;;;;5060482;28;20234;-70
2022/07/12 04:08:44;;;;;;;0.50;0.50;;;;;;;;;;5058510;28;20208;-70
2022/07/12 04:11:32;;;;;;;0.60;0.60;;;;;;;;;;5060967;28;20639;-70
2022/07/12 04:14:19;;;;;;;1.07;0.80;;;;;;;;;;5055415;28;20655;-70
2022/07/12 04:17:06;;;;;;;1.20;1.10;;;;;;;;;;5061781;28;20257;-69
2022/07/12 04:19:54;;;;;;;1.67;0.77;;;;;;;;;;5056197;28;20627;-70
2022/07/12 04:22:41;;;;;;;1.17;1.10;;;;;;;;;;5065874;28;20216;-70
2022/07/12 04:25:28;;;;;;;0.90;0.90;;;;;;;;;;5062381;28;20260;-70
2022/07/12 04:28:16;;;;;;;0.90;0.80;;;;;;;;;;5060662;28;20204;-70
2022/07/12 04:31:04;;;;;;;1.53;1.13;;;;;;;;;;5060730;28;20679;-70
2022/07/12 04:33:52;;;;;;;2.10;0.90;;;;;;;;;;5061526;28;20205;-70
2022/07/12 04:36:39;;;;;;;1.10;1.00;;;;;;;;;;5066443;28;20270;-70
2022/07/12 04:39:26;;;;;;;0.97;0.97;;;;;;;;;;5063209;28;20559;-70
2022/07/12 04:42:13;;;;;;;1.00;1.00;;;;;;;;;;5056471;28;20208;-70
2022/07/12 04:45:01;;;;;;;1.47;1.03;;;;;;;;;;5063318;28;20231;-70
2022/07/12 04:47:48;;;;;;;1.00;1.00;;;;;;;;;;5059656;28;20209;-70
2022/07/12 04:50:35;;;;;;;0.90;0.90;;;;;;;;;;5057115;28;20213;-70
2022/07/12 04:53:22;;;;;;;1.27;0.87;;;;;;;;;;5061065;28;20675;-70
2022/07/12 04:56:09;;;;;;;1.07;1.00;;;;;;;;;;5065118;28;20661;-70
2022/07/12 04:58:56;;;;;;;0.90;0.90;;;;;;;;;;5060200;28;20206;-70
2022/07/12 05:01:45;;;;;;;0.80;0.80;;;;;;;;;;5059966;28;20237;-70
2022/07/12 05:04:33;;;;;;;1.00;0.97;;;;;;;;;;5060437;28;20237;-70
2022/07/12 05:07:20;;;;;;;0.67;0.67;;;;;;;;;;5061143;28;20227;-69
2022/07/12 05:10:09;;;;;;;0.90;0.80;;;;;;;;;;5060622;28;20211;-70
2022/07/12 05:12:56;;;;;;;0.87;0.87;;;;;;;;;;5059342;28;20264;-70
2022/07/12 05:15:43;;;;;;;0.97;0.87;;;;;;;;;;5061415;28;20213;-70
2022/07/12 05:18:31;;;;;;;0.80;0.80;;;;;;;;;;5058797;28;20207;-70
2022/07/12 05:21:18;;;;;;;0.80;0.80;;;;;;;;;;5055842;28;20279;-71
2022/07/12 05:24:06;;;;;;;1.07;0.90;;;;;;;;;;5063081;28;20218;-70
2022/07/12 05:26:53;;;;;;;0.80;0.80;;;;;;;;;;5059386;28;20211;-70
2022/07/12 05:29:40;;;;;;;1.10;1.10;;;;;;;;;;5057626;28;20264;-69
2022/07/12 05:32:27;;;;;;;1.30;1.20;;;;;;;;;;5061153;28;20210;-70
2022/07/12 05:35:15;;;;;;;1.00;0.90;;;;;;;;;;5061113;28;20210;-70
2022/07/12 05:38:02;;;;;;;0.90;0.90;;;;;;;;;;5064756;28;20224;-70
2022/07/12 05:40:49;;;;;;;1.00;0.90;;;;;;;;;;5058525;28;20246;-70
2022/07/12 05:43:36;;;;;;;1.40;1.20;;;;;;;;;;5059167;28;20677;-70
2022/07/12 05:46:24;;;;;;;1.37;1.27;;;;;;;;;;5065495;28;20217;-70
2022/07/12 05:49:11;;;;;;;1.00;1.00;;;;;;;;;;5061567;28;20207;-70
2022/07/12 05:55:05;;;;;;;1.10;1.00;;;;;;;;;;5061675;28;20674;-71
2022/07/12 05:57:52;;;;;;;1.10;0.90;;;;;;;;;;5056053;28;20209;-71
2022/07/12 06:00:39;;;;;;;1.97;0.93;;;;;;;;;;5058624;28;20701;-70
2022/07/12 06:03:26;;;;;;;0.93;0.88;;;;;;;;;;5062105;28;20709;-70
2022/07/12 06:06:13;;;;;;;1.13;1.02;;;;;;;;;;5061311;28;20231;-70
2022/07/12 06:09:02;;;;;;;0.82;0.82;;;;;;;;;;5053308;28;20213;-69
2022/07/12 06:11:49;;;;;;;1.00;1.00;;;;;;;;;;5056654;28;20231;-70
2022/07/12 06:14:36;;;;;;;0.70;0.70;;;;;;;;;;5057754;28;20204;-69
2022/07/12 06:17:24;;;;;;;1.20;1.10;;;;;;;;;;5060862;28;20290;-70
2022/07/12 06:20:12;;;;;;;1.40;1.30;;;;;;;;;;5058030;28;20629;-70
2022/07/12 06:22:59;;;;;;;0.90;0.90;;;;;;;;;;5059898;28;20207;-70
2022/07/12 06:25:48;;;;;;;1.17;1.17;;;;;;;;;;5061321;28;20225;-69
2022/07/12 06:28:34;;;;;;;0.85;0.85;;;;;;;;;;5060287;28;20207;-70
2022/07/12 06:31:23;;;;;;;0.90;0.90;;;;;;;;;;5057780;28;20571;-70
2022/07/12 06:34:10;;;;;;;0.90;0.88;;;;;;;;;;5061806;28;20208;-73
2022/07/12 06:36:57;;;;;;;1.20;1.08;;;;;;;;;;5062828;28;20204;-73
2022/07/12 06:39:46;;;;;;;1.30;1.20;;;;;;;;;;5058560;28;20199;-73
2022/07/12 06:42:35;;;;;;;0.88;0.82;;;;;;;;;;5059336;28;20214;-73
2022/07/12 06:45:22;;;;;;;0.90;0.90;;;;;;;;;;5065349;28;20840;-72
2022/07/12 06:48:09;;;;;;;0.90;0.90;;;;;;;;;;5053947;28;20209;-73
2022/07/12 06:50:56;;;;;;;1.17;1.00;;;;;;;;;;5058324;28;20281;-73
2022/07/12 06:53:43;;;;;;;2.15;1.38;;;;;;;;;;5055107;28;20695;-73
2022/07/12 06:56:30;;;;;;;1.25;1.15;;;;;;;;;;5060833;28;20238;-73
2022/07/12 06:59:18;;;;;;;1.85;0.77;;;;;;;;;;5059121;28;20286;-73
2022/07/12 07:02:05;;;;;;;1.25;1.20;;;;;;;;;;5067402;28;20805;-73
2022/07/12 07:04:52;;;;;;;1.05;0.95;;;;;;;;;;5059185;28;20722;-74
2022/07/12 07:07:40;;;;;;;1.02;1.02;;;;;;;;;;5063269;28;20623;-74
2022/07/12 07:10:27;;;;;;;1.02;1.02;;;;;;;;;;5062621;28;20200;-74
2022/07/12 07:13:14;;;;;;;0.70;0.70;;;;;;;;;;5058518;28;20262;-73
2022/07/12 07:16:02;;;;;;;1.05;0.90;;;;;;;;;;5063817;28;20281;-73
2022/07/12 07:18:50;;;;;;;0.88;0.88;;;;;;;;;;5064116;28;20577;-73
2022/07/12 07:21:37;;;;;;;1.00;1.00;;;;;;;;;;5063694;28;20207;-74
2022/07/12 07:24:24;;;;;;;0.73;0.73;;;;;;;;;;5068162;28;20211;-74
2022/07/12 07:27:11;;;;;;;0.80;0.80;;;;;;;;;;5061137;28;20226;-73
2022/07/12 07:33:04;;;;;;;0.90;0.80;;;;;;;;;;5063186;28;20255;-73
2022/07/12 07:35:51;;;;;;;0.90;0.90;;;;;;;;;;5060638;28;20204;-73
2022/07/12 07:38:38;;;;;;;0.90;0.80;;;;;;;;;;5061493;28;20742;-73
2022/07/12 07:41:25;;;;;;;0.80;0.80;;;;;;;;;;5060044;28;20208;-73
2022/07/12 07:44:12;;;;;;;0.90;0.90;;;;;;;;;;5060569;28;20265;-73
2022/07/12 07:47:00;;;;;;;1.00;1.00;;;;;;;;;;5062424;28;20194;-73
2022/07/12 07:49:48;;;;;;;0.80;0.80;;;;;;;;;;5062539;28;20205;-73
2022/07/12 07:52:35;;;;;;;0.80;0.80;;;;;;;;;;5059912;28;20222;-73
2022/07/12 07:55:22;;;;;;;0.70;0.68;;;;;;;;;;5058670;28;20574;-73
2022/07/12 07:58:09;;;;;;;1.17;0.90;;;;;;;;;;5053442;28;20678;-73
2022/07/12 08:00:56;;;;;;;0.80;0.80;;;;;;;;;;5057672;28;20210;-73
2022/07/12 08:03:43;;;;;;;1.27;0.88;;;;;;;;;;5057845;28;20445;-72
2022/07/12 08:06:31;;;;;;;0.95;0.95;;;;;;;;;;5055378;28;20234;-72
2022/07/12 08:09:18;;;;;;;0.90;0.90;;;;;;;;;;5055704;28;20207;-72
2022/07/12 08:12:06;;;;;;;1.05;0.95;;;;;;;;;;5042262;28;20330;-73
2022/07/12 08:14:53;;;;;;;0.88;0.88;;;;;;;;;;5036303;28;20610;-72
2022/07/12 08:17:40;;;;;;;0.93;0.90;;;;;;;;;;5038467;28;20364;-72
2022/07/12 08:20:27;;;;;;;1.00;0.73;;;;;;;;;;5037444;28;20212;-72
2022/07/12 08:23:15;;;;;;;0.70;0.70;;;;;;;;;;5035875;28;20201;-72
2022/07/12 08:26:02;;;;;;;0.80;0.80;;;;;;;;;;5039954;28;20323;-72
2022/07/12 08:28:49;;;;;;;0.70;0.70;;;;;;;;;;5039837;28;20210;-72
2022/07/12 08:31:36;;;;;;;0.60;0.60;;;;;;;;;;5043453;28;20239;-73
2022/07/12 08:34:23;;;;;;;1.00;0.90;;;;;;;;;;5042173;28;20208;-72
2022/07/12 08:37:10;;;;;;;0.60;0.60;;;;;;;;;;5041889;28;20203;-71
2022/07/12 08:39:59;;;;;;;0.70;0.70;;;;;;;;;;5043535;28;20200;-73
2022/07/12 08:42:47;;;;;;;0.90;0.90;;;;;;;;;;5030841;28;20237;-73
2022/07/12 08:45:34;;;;;;;0.70;0.70;;;;;;;;;;5037572;28;20224;-73
2022/07/12 08:48:22;;;;;;;0.82;0.80;;;;;;;;;;5031704;28;20209;-74
2022/07/12 08:51:10;;;;;;;0.75;0.75;;;;;;;;;;5037493;28;20275;-73
2022/07/12 08:54:08;;;;;;;2.08;0.90;;;;;;;;;;5035516;28;20911;-74
2022/07/12 08:56:59;;;;;;;0.60;0.60;;;;;;;;;;5033829;28;20208;-74
2022/07/12 08:59:48;;;;;;;0.70;0.70;;;;;;;;;;5035346;28;20220;-73
2022/07/12 09:02:44;;;;;;;0.90;0.90;;;;;;;;;;5048267;28;20232;-73
2022/07/12 09:05:33;;;;;;;0.77;0.77;;;;;;;;;;5034909;28;20220;-73
2022/07/12 09:08:26;;;;;;;0.85;0.85;;;;;;;;;;5044605;28;20295;-73
2022/07/12 09:11:17;;;;;;;0.68;0.68;;;;;;;;;;5037502;28;20327;-73
2022/07/12 09:14:06;;;;;;;0.75;0.75;;;;;;;;;;5036928;28;20211;-73
2022/07/12 09:17:01;;;;;;;0.60;0.60;;;;;;;;;;5037236;28;20258;-73
2022/07/12 09:19:55;;;;;;;0.73;0.70;;;;;;;;;;5037749;28;20212;-73
2022/07/12 09:22:52;;;;;;;1.08;0.90;;;;;;;;;;5037327;28;20298;-73
2022/07/12 09:25:40;;;;;;;0.90;0.90;;;;;;;;;;5038615;28;20260;-74
2022/07/12 09:28:27;;;;;;;1.08;0.88;;;;;;;;;;5031187;28;20197;-73
2022/07/12 09:31:15;;;;;;;0.60;0.60;;;;;;;;;;5041359;28;20216;-73
2022/07/12 09:37:07;;;;;;;0.60;0.60;;;;;;;;;;5040470;28;20196;-73
2022/07/12 09:39:55;;;;;;;0.90;0.90;;;;;;;;;;5040028;28;20191;-73
2022/07/12 09:42:43;;;;;;;0.80;0.80;;;;;;;;;;5039040;28;20295;-73
2022/07/12 09:45:30;;;;;;;0.70;0.70;;;;;;;;;;5042990;28;20315;-73
2022/07/12 09:48:20;;;;;;;0.63;0.63;;;;;;;;;;5037102;28;20204;-73
2022/07/12 09:51:09;;;;;;;1.08;0.90;;;;;;;;;;5036903;28;20232;-73
2022/07/12 09:54:01;;;;;;;0.60;0.60;;;;;;;;;;5037585;28;20285;-73
2022/07/12 09:56:50;;;;;;;0.80;0.80;;;;;;;;;;5034136;28;20242;-73
2022/07/12 09:59:38;;;;;;;0.90;0.70;;;;;;;;;;5037652;28;20200;-73
2022/07/12 10:02:28;;;;;;;0.88;0.88;;;;;;;;;;5041419;28;20247;-73
2022/07/12 10:05:17;;;;;;;0.80;0.80;;;;;;;;;;5043931;28;20222;-73
2022/07/12 10:08:05;;;;;;;0.68;0.68;;;;;;;;;;5039558;28;20255;-74
2022/07/12 10:10:53;;;;;;;0.95;0.70;;;;;;;;;;5043454;28;20747;-73
2022/07/12 10:13:40;;;;;;;0.90;0.90;;;;;;;;;;5055503;28;20341;-73
2022/07/12 10:16:28;;;;;;;0.80;0.80;;;;;;;;;;5063056;28;20278;-73
2022/07/12 10:19:29;;;;;;;0.80;0.80;;;;;;;;;;5055903;28;20214;-73
2022/07/12 10:22:22;;;;;;;1.75;0.80;;;;;;;;;;5053770;28;20229;-74
2022/07/12 10:25:31;;;;;;;0.60;0.60;;;;;;;;;;5057412;28;20675;-73
2022/07/12 10:28:18;;;;;;;0.82;0.82;;;;;;;;;;5056029;28;20203;-73
2022/07/12 10:31:07;;;;;;;0.50;0.50;;;;;;;;;;5061306;28;20204;-73
2022/07/12 10:34:09;;;;;;;0.77;0.77;;;;;;;;;;5062863;28;20203;-73
2022/07/12 10:37:12;;;;;;;0.73;0.73;;;;;;;;;;5059063;28;20211;-73
2022/07/12 10:40:18;;;;;;;0.70;0.70;;;;;;;;;;5062672;28;20202;-73
2022/07/12 10:46:59;;;;;;;0.70;0.70;;;;;;;;;;5062261;28;20231;-73
2022/07/12 10:49:52;;;;;;;0.70;0.70;;;;;;;;;;5060621;28;20256;-73
2022/07/12 10:52:39;;;;;;;0.70;0.70;;;;;;;;;;5061126;28;20297;-73
2022/07/12 10:55:27;;;;;;;0.60;0.60;;;;;;;;;;5057135;28;20203;-73
2022/07/12 10:58:31;;;;;;;0.60;0.60;;;;;;;;;;5060537;28;20231;-73
2022/07/12 11:01:20;;;;;;;0.50;0.50;;;;;;;;;;5061267;28;20693;-74
2022/07/12 11:04:09;;;;;;;0.60;0.60;;;;;;;;;;5062311;28;20272;-73
2022/07/12 11:06:58;;;;;;;0.68;0.68;;;;;;;;;;5055211;28;20234;-73
2022/07/12 11:09:45;;;;;;;0.77;0.77;;;;;;;;;;5061646;28;20223;-73
2022/07/12 11:12:34;;;;;;;0.70;0.70;;;;;;;;;;5056944;28;20242;-73
2022/07/12 11:15:21;;;;;;;0.55;0.55;;;;;;;;;;5058612;28;20212;-73
2022/07/12 11:18:08;;;;;;;1.20;0.60;;;;;;;;;;5056889;28;20199;-73
2022/07/12 11:20:57;;;;;;;0.60;0.60;;;;;;;;;;5058306;28;20214;-73
2022/07/12 11:23:44;;;;;;;0.90;0.90;;;;;;;;;;5061323;28;20218;-73
2022/07/12 11:26:33;;;;;;;0.65;0.65;;;;;;;;;;5054054;28;20215;-73
2022/07/12 11:29:22;;;;;;;0.63;0.63;;;;;;;;;;5059742;28;20334;-73
2022/07/12 11:32:09;;;;;;;0.70;0.70;;;;;;;;;;5054293;28;20207;-73
2022/07/12 11:34:56;;;;;;;0.65;0.65;;;;;;;;;;5053040;28;20283;-73
2022/07/12 11:37:49;;;;;;;0.95;0.60;;;;;;;;;;5055110;28;20664;-73
2022/07/12 11:40:36;;;;;;;0.90;0.90;;;;;;;;;;5051083;28;20204;-73
2022/07/12 11:43:23;;;;;;;0.75;0.75;;;;;;;;;;5052615;28;20208;-73
2022/07/12 11:46:14;;;;;;;0.55;0.55;;;;;;;;;;5059751;28;20230;-73
2022/07/12 11:49:01;;;;;;;0.77;0.77;;;;;;;;;;5056121;28;20211;-73
2022/07/12 11:51:48;;;;;;;0.75;0.68;;;;;;;;;;5058539;28;20219;-73
2022/07/12 11:54:35;;;;;;;1.10;0.60;;;;;;;;;;5056609;28;20227;-73
2022/07/12 11:57:24;;;;;;;0.63;0.63;;;;;;;;;;5062973;28;20208;-73
2022/07/12 12:00:16;;;;;;;0.68;0.68;;;;;;;;;;5063663;28;20290;-73
2022/07/12 12:03:04;;;;;;;4.53;1.05;;;;;;;;;;5059737;28;20313;-73
2022/07/12 12:05:53;;;;;;;1.55;0.88;;;;;;;;;;5063018;28;20215;-73
2022/07/12 12:08:41;;;;;;;0.70;0.70;;;;;;;;;;5057956;28;20710;-73
2022/07/12 12:11:29;;;;;;;1.17;0.68;;;;;;;;;;5057699;28;20240;-73
2022/07/12 12:14:16;;;;;;;0.85;0.57;;;;;;;;;;5058909;28;20202;-73
2022/07/12 12:17:13;;;;;;;2.13;0.70;;;;;;;;;;5067039;28;20249;-73
2022/07/12 12:20:09;;;;;;;0.73;0.73;;;;;;;;;;5057493;28;20200;-73
2022/07/12 12:22:58;;;;;;;1.23;1.00;;;;;;;;;;5058563;28;20285;-73
2022/07/12 12:25:45;;;;;;;1.42;0.60;;;;;;;;;;5060962;28;20219;-73
2022/07/12 12:28:42;;;;;;;1.38;0.90;;;;;;;;;;5056524;28;20265;-73
2022/07/12 12:31:29;;;;;;;1.17;0.80;;;;;;;;;;5061356;28;20687;-73
2022/07/12 12:34:16;;;;;;;2.05;0.90;;;;;;;;;;5059121;28;20211;-74
2022/07/12 12:37:07;;;;;;;0.70;0.60;;;;;;;;;;5059987;28;20672;-73
2022/07/12 12:39:54;;;;;;;2.20;0.88;;;;;;;;;;5057338;28;20294;-73
2022/07/12 12:42:41;;;;;;;0.98;0.90;;;;;;;;;;5058225;28;20616;-73
2022/07/12 12:45:28;;;;;;;0.68;0.68;;;;;;;;;;5061141;28;20203;-73
2022/07/12 12:48:19;;;;;;;0.98;0.93;;;;;;;;;;5058714;28;20232;-73
2022/07/12 12:51:08;;;;;;;0.70;0.70;;;;;;;;;;5059154;28;20212;-73
2022/07/12 12:53:58;;;;;;;0.70;0.70;;;;;;;;;;5062111;28;20219;-73
2022/07/12 12:56:45;;;;;;;0.60;0.60;;;;;;;;;;5058612;28;20281;-73
2022/07/12 12:59:32;;;;;;;1.38;0.90;;;;;;;;;;5058081;28;20207;-73
2022/07/12 13:02:22;;;;;;;0.88;0.60;;;;;;;;;;5055527;28;20226;-74
2022/07/12 13:05:09;;;;;;;0.60;0.60;;;;;;;;;;5054843;28;20215;-72
2022/07/12 13:07:56;;;;;;;0.70;0.70;;;;;;;;;;5060625;28;20222;-73
2022/07/12 13:10:46;;;;;;;1.55;0.60;;;;;;;;;;5057976;28;20294;-73
2022/07/12 13:13:33;;;;;;;0.60;0.60;;;;;;;;;;5054982;28;20199;-73
2022/07/12 13:16:20;;;;;;;0.70;0.70;;;;;;;;;;5063976;28;20290;-73
2022/07/12 13:19:07;;;;;;;0.60;0.60;;;;;;;;;;5059291;28;20628;-73
2022/07/12 13:21:55;;;;;;;0.65;0.65;;;;;;;;;;5052472;28;20286;-73
2022/07/12 13:24:42;;;;;;;1.33;0.90;;;;;;;;;;5060852;28;20247;-73
2022/07/12 13:27:30;;;;;;;0.50;0.50;;;;;;;;;;5056559;28;20234;-73
2022/07/12 13:30:18;;;;;;;0.75;0.75;;;;;;;;;;5057315;28;20207;-74
2022/07/12 13:33:05;;;;;;;0.70;0.60;;;;;;;;;;5064848;28;20680;-73
2022/07/12 13:35:52;;;;;;;0.68;0.68;;;;;;;;;;5055988;28;20353;-73
2022/07/12 13:38:39;;;;;;;0.65;0.65;;;;;;;;;;5054936;28;20191;-73
2022/07/12 13:41:26;;;;;;;0.60;0.60;;;;;;;;;;5062731;28;20206;-73
2022/07/12 13:44:14;;;;;;;0.70;0.70;;;;;;;;;;5055755;28;20297;-73
2022/07/12 13:47:01;;;;;;;0.80;0.70;;;;;;;;;;5058415;28;20220;-73
2022/07/12 13:49:49;;;;;;;0.60;0.60;;;;;;;;;;5063975;28;20740;-73
2022/07/12 13:52:36;;;;;;;0.70;0.70;;;;;;;;;;5061034;28;20219;-73
2022/07/12 13:55:23;;;;;;;0.82;0.82;;;;;;;;;;5056663;28;20227;-73
2022/07/12 13:58:11;;;;;;;1.52;0.60;;;;;;;;;;5061208;28;20204;-73
2022/07/12 14:00:59;;;;;;;0.55;0.55;;;;;;;;;;5054566;28;20208;-73
2022/07/12 14:03:46;;;;;;;0.50;0.50;;;;;;;;;;5060057;28;20228;-73
2022/07/12 14:06:33;;;;;;;1.23;0.90;;;;;;;;;;5058071;28;20208;-74
2022/07/12 14:09:20;;;;;;;0.80;0.70;;;;;;;;;;5066092;28;20210;-73
2022/07/12 14:12:09;;;;;;;3.40;0.68;;;;;;;;;;5058249;28;20277;-73
2022/07/12 14:18:01;;;;;;;0.85;0.60;;;;;;;;;;5060533;28;20203;-74
2022/07/12 14:20:48;;;;;;;0.52;0.52;;;;;;;;;;5064766;28;20203;-73
2022/07/12 14:23:35;;;;;;;0.50;0.50;;;;;;;;;;5061878;28;20214;-73
2022/07/12 14:26:23;;;;;;;0.63;0.63;;;;;;;;;;5061858;28;20203;-72
2022/07/12 14:29:11;;;;;;;0.90;0.60;;;;;;;;;;5059859;28;20656;-73
2022/07/12 14:31:58;;;;;;;0.90;0.77;;;;;;;;;;5062058;28;20234;-73
2022/07/12 14:34:46;;;;;;;0.40;0.40;;;;;;;;;;5060817;28;20211;-73
2022/07/12 14:37:33;;;;;;;0.45;0.45;;;;;;;;;;5055526;28;20448;-73
2022/07/12 14:40:21;;;;;;;0.80;0.45;;;;;;;;;;5061999;28;20215;-73
2022/07/12 14:43:08;;;;;;;0.98;0.43;;;;;;;;;;5059345;28;20195;-73
2022/07/12 14:45:55;;;;;;;0.50;0.50;;;;;;;;;;5063270;28;20211;-73
2022/07/12 14:48:42;;;;;;;0.50;0.50;;;;;;;;;;5058225;28;20328;-73
2022/07/12 14:51:31;;;;;;;0.57;0.57;;;;;;;;;;5057849;28;20207;-73
2022/07/12 14:54:18;;;;;;;0.77;0.60;;;;;;;;;;5062644;28;20219;-73
2022/07/12 14:57:05;;;;;;;0.50;0.50;;;;;;;;;;5058295;28;20237;-73
2022/07/12 14:59:53;;;;;;;0.55;0.47;;;;;;;;;;5055460;28;20231;-73
2022/07/12 15:02:40;;;;;;;0.45;0.45;;;;;;;;;;5060576;28;20231;-73
2022/07/12 15:05:27;;;;;;;0.68;0.68;;;;;;;;;;5055852;28;20215;-74
2022/07/12 15:08:16;;;;;;;2.05;0.50;;;;;;;;;;5061816;28;20230;-73
2022/07/12 15:11:03;;;;;;;0.50;0.50;;;;;;;;;;5053242;28;20591;-73
2022/07/12 15:13:50;;;;;;;1.25;0.40;;;;;;;;;;5054729;28;20211;-73
2022/07/12 15:16:37;;;;;;;0.40;0.40;;;;;;;;;;5052952;28;20250;-73
2022/07/12 15:19:24;;;;;;;0.38;0.38;;;;;;;;;;5058830;28;20210;-73
2022/07/12 15:22:13;;;;;;;0.40;0.40;;;;;;;;;;5063007;28;20469;-73
2022/07/12 15:25:01;;;;;;;0.95;0.68;;;;;;;;;;5059255;28;20218;-73
2022/07/12 15:27:48;;;;;;;1.05;0.40;;;;;;;;;;5062442;28;20226;-73
2022/07/12 15:30:37;;;;;;;0.40;0.40;;;;;;;;;;5055671;28;20279;-73
2022/07/12 15:33:24;;;;;;;0.65;0.65;;;;;;;;;;5060796;28;20203;-73
2022/07/12 15:36:11;;;;;;;0.52;0.52;;;;;;;;;;5067440;28;20297;-73
2022/07/12 15:38:58;;;;;;;0.50;0.50;;;;;;;;;;5061849;28;20206;-73
2022/07/12 15:41:47;;;;;;;0.40;0.40;;;;;;;;;;5060886;28;20744;-73
2022/07/12 15:44:34;;;;;;;0.50;0.50;;;;;;;;;;5065223;28;20524;-73
2022/07/12 15:47:21;;;;;;;0.40;0.40;;;;;;;;;;5065814;28;20229;-73
2022/07/12 15:50:09;;;;;;;0.47;0.47;;;;;;;;;;5054272;28;20243;-73
2022/07/12 15:56:02;;;;;;;0.60;0.60;;;;;;;;;;5060063;28;20223;-73
2022/07/12 15:58:51;;;;;;;0.65;0.65;;;;;;;;;;5056823;28;20230;-73
2022/07/12 16:01:38;;;;;;;0.73;0.63;;;;;;;;;;5061021;28;20352;-73
2022/07/12 16:04:25;;;;;;;0.40;0.40;;;;;;;;;;5060815;28;20203;-73
2022/07/12 16:07:12;;;;;;;0.40;0.40;;;;;;;;;;5059967;28;20214;-73
2022/07/12 16:09:59;;;;;;;0.40;0.40;;;;;;;;;;5063602;28;20219;-73
2022/07/12 16:12:46;;;;;;;0.50;0.50;;;;;;;;;;5059100;28;20255;-73
2022/07/12 16:15:34;;;;;;;1.52;0.60;;;;;;;;;;5058869;28;20212;-73
2022/07/12 16:18:21;;;;;;;0.30;0.30;;;;;;;;;;5063111;28;20564;-73
2022/07/12 16:21:09;;;;;;;0.45;0.45;;;;;;;;;;5060916;28;20279;-74
2022/07/12 16:23:56;;;;;;;0.40;0.40;;;;;;;;;;5060399;28;20210;-73
2022/07/12 16:26:42;;;;;;;0.30;0.30;;;;;;;;;;5063112;28;20217;-73
2022/07/12 16:29:32;;;;;;;0.40;0.40;;;;;;;;;;5060367;28;20236;-73
2022/07/12 16:32:20;;;;;;;0.45;0.45;;;;;;;;;;5058796;28;20255;-73
2022/07/12 16:35:09;;;;;;;1.00;0.30;;;;;;;;;;5059608;28;20204;-73
2022/07/12 16:37:56;;;;;;;0.32;0.32;;;;;;;;;;5061034;28;20275;-72
2022/07/12 16:40:43;;;;;;;0.43;0.40;;;;;;;;;;5062658;28;20215;-73
2022/07/12 16:43:30;;;;;;;0.50;0.50;;;;;;;;;;5059436;28;20736;-73
2022/07/12 16:46:17;;;;;;;0.45;0.45;;;;;;;;;;5058746;28;20224;-73
2022/07/12 16:49:06;;;;;;;0.40;0.40;;;;;;;;;;5058088;28;20690;-73
2022/07/12 16:51:53;;;;;;;0.55;0.30;;;;;;;;;;5056759;28;20203;-73
2022/07/12 16:54:40;;;;;;;0.55;0.55;;;;;;;;;;5057090;28;20217;-73
2022/07/12 16:57:28;;;;;;;0.30;0.30;;;;;;;;;;5062270;28;20239;-73
2022/07/12 17:00:15;;;;;;;0.32;0.30;;;;;;;;;;5061089;28;20213;-73
2022/07/12 17:03:02;;;;;;;0.43;0.40;;;;;;;;;;5059493;28;20319;-73
2022/07/12 17:05:50;;;;;;;0.38;0.38;;;;;;;;;;5056290;28;20202;-73
2022/07/12 17:08:38;;;;;;;0.50;0.43;;;;;;;;;;5057149;28;20270;-73